ETHS

Fassberg Airport

Germany
METAR ETHS 212220Z 00000KT 9999 BKN320 06/03 Q1020 BLU+
Observed Flight Rules
Apr-21 @ 22:20 UTC (47 minutes ago) Visual Flight Rules
Visibility Clouds
10,000+ meters
  • Broken at 32,000' AGL
Temperatures Readings
Current 6°C / 43°F
Dewpoint 3°C / 37°F
Humidity 81%
Altimeter 30.12" Hg
Pressure 1020 hPa
Elevation 88
METAR ETHS 212220Z 00000KT 9999 BKN320 06/03 Q1020 BLU+
Observed Flight Rules
Apr-21 @ 22:20 UTC
(47 minutes ago)
VFR
Clouds
  • Broken at 32,000' AGL
Temperature Dewpoint
6°C / 43°F 3°C / 37°F
Humidity Altimeter Pressure
81% 30.12" Hg 1020 hPa